Time;durP1;ratioP1;P1;durP2;ratioP2;P2;SDS_P1;SDS_P2;PMS_P1;PMS_P2;Temp;Humidity;BMP_temperature;BMP_pressure;BME280_temperature;BME280_humidity;BME280_pressure;Samples;Min_cycle;Max_cycle;Signal;HPM_P1;HPM_P2
2022/12/01 00:01:04;;;;;;;31.47;23.83;;;;;;;5.20;100.00;100814.31;4970316;28;20593;-69
2022/12/01 00:03:31;;;;;;;31.03;25.00;;;;;;;5.33;100.00;100809.78;5002236;28;20198;-70
2022/12/01 00:06:15;;;;;;;37.43;24.47;;;;;;;5.25;100.00;100815.06;5026529;28;20184;-69
2022/12/01 00:10:24;;;;;;;27.87;22.33;;;;;;;5.37;100.00;100816.53;5026809;28;20189;-69
2022/12/01 00:11:26;;;;;;;31.07;22.80;;;;;;;5.29;100.00;100811.56;5012946;28;20262;-70
2022/12/01 00:13:52;;;;;;;30.03;23.50;;;;;;;5.27;100.00;100812.47;5016159;28;20182;-70
2022/12/01 00:16:17;;;;;;;28.20;22.63;;;;;;;5.13;100.00;100816.13;5004355;28;20227;-70
2022/12/01 00:18:43;;;;;;;28.37;21.27;;;;;;;5.11;100.00;100817.03;5018208;28;20182;-70
2022/12/01 00:21:16;;;;;;;28.50;21.30;;;;;;;5.05;100.00;100815.47;5011224;28;20222;-71
2022/12/01 00:23:43;;;;;;;29.13;22.63;;;;;;;5.05;100.00;100817.16;5022592;28;20264;-70
2022/12/01 00:26:08;;;;;;;30.93;22.60;;;;;;;5.09;100.00;100814.53;5027455;28;20187;-70
2022/12/01 00:28:33;;;;;;;35.43;24.33;;;;;;;5.00;100.00;100820.66;5012403;28;20556;-70
2022/12/01 00:30:59;;;;;;;29.07;22.03;;;;;;;5.09;100.00;100824.72;4987449;28;20237;-71
2022/12/01 00:33:24;;;;;;;29.37;20.73;;;;;;;5.16;100.00;100817.81;5015693;28;20188;-70
2022/12/01 00:35:49;;;;;;;27.90;20.87;;;;;;;5.04;100.00;100818.91;5012702;28;20211;-71
2022/12/01 00:38:14;;;;;;;29.30;20.17;;;;;;;5.18;100.00;100821.16;5027032;28;20186;-71
2022/12/01 00:40:40;;;;;;;26.30;18.87;;;;;;;5.04;100.00;100812.97;5006216;28;20239;-71
2022/12/01 00:43:05;;;;;;;26.50;21.07;;;;;;;5.02;100.00;100812.97;5027546;28;20182;-71
2022/12/01 00:45:30;;;;;;;28.43;21.90;;;;;;;5.05;100.00;100820.56;5027471;28;20200;-70
2022/12/01 00:47:55;;;;;;;29.20;20.87;;;;;;;5.20;100.00;100819.44;5010573;28;20183;-71
2022/12/01 00:50:21;;;;;;;31.13;22.83;;;;;;;5.19;100.00;100822.00;5003533;28;20366;-71
2022/12/01 00:52:46;;;;;;;30.77;21.80;;;;;;;5.25;100.00;100812.50;5024889;28;20191;-70
2022/12/01 00:55:11;;;;;;;27.83;21.20;;;;;;;5.20;100.00;100824.53;5011922;28;20177;-71
2022/12/01 00:57:37;;;;;;;33.83;23.57;;;;;;;5.16;100.00;100820.38;5006483;28;20185;-70
2022/12/01 01:00:04;;;;;;;30.13;22.67;;;;;;;5.23;100.00;100815.97;5025236;28;20612;-68
2022/12/01 01:02:30;;;;;;;31.33;22.87;;;;;;;5.19;100.00;100820.28;5007601;28;20231;-70
2022/12/01 01:04:55;;;;;;;32.13;22.90;;;;;;;5.19;100.00;100819.47;5009879;28;20300;-70
2022/12/01 01:07:20;;;;;;;32.33;23.53;;;;;;;5.21;100.00;100822.81;5011373;28;20605;-70
2022/12/01 01:09:49;;;;;;;26.43;19.90;;;;;;;5.13;100.00;100828.06;5010339;28;20240;-70
2022/12/01 01:12:14;;;;;;;32.03;23.77;;;;;;;5.08;100.00;100822.22;4999423;28;20245;-71
2022/12/01 01:14:39;;;;;;;28.47;21.30;;;;;;;5.10;100.00;100828.97;5010774;28;20183;-70
2022/12/01 01:17:05;;;;;;;29.77;21.47;;;;;;;4.97;100.00;100833.50;5011442;28;20186;-71
2022/12/01 01:19:30;;;;;;;28.40;21.23;;;;;;;4.79;100.00;100833.84;5010781;28;20614;-70
2022/12/01 01:21:55;;;;;;;28.13;18.67;;;;;;;4.59;100.00;100845.22;5015543;28;20229;-70
2022/12/01 01:24:20;;;;;;;32.53;21.67;;;;;;;4.36;100.00;100840.53;5012989;28;20269;-71
2022/12/01 01:26:46;;;;;;;33.13;20.67;;;;;;;4.35;100.00;100851.56;5025522;28;20180;-71
2022/12/01 01:29:11;;;;;;;31.57;20.50;;;;;;;4.33;100.00;100858.41;5027007;28;20635;-71
2022/12/01 01:31:36;;;;;;;34.27;20.80;;;;;;;4.03;100.00;100856.31;5013768;28;20214;-71
2022/12/01 01:34:02;;;;;;;31.20;20.77;;;;;;;3.97;100.00;100861.50;5027192;28;20228;-70
2022/12/01 01:36:28;;;;;;;32.43;20.87;;;;;;;3.88;100.00;100857.41;5026392;28;20179;-70
2022/12/01 01:38:54;;;;;;;32.17;20.23;;;;;;;3.82;100.00;100857.47;5011446;28;20194;-70
2022/12/01 01:41:20;;;;;;;31.67;20.47;;;;;;;3.78;100.00;100860.91;4996474;28;20234;-70
2022/12/01 01:43:54;;;;;;;33.23;21.70;;;;;;;3.71;100.00;100864.44;5020995;28;20212;-69
2022/12/01 01:46:33;;;;;;;32.73;21.20;;;;;;;3.76;100.00;100862.66;5026518;28;20935;-70
2022/12/01 01:49:04;;;;;;;31.37;20.17;;;;;;;3.77;100.00;100866.91;5026426;28;20524;-70
2022/12/01 01:51:39;;;;;;;30.27;20.10;;;;;;;3.80;100.00;100869.38;5019461;28;20225;-70
2022/12/01 01:54:14;;;;;;;30.33;19.07;;;;;;;3.70;100.00;100863.56;5025936;28;20190;-70
2022/12/01 01:56:42;;;;;;;31.23;20.10;;;;;;;3.84;100.00;100871.00;5023932;28;20269;-70
2022/12/01 01:59:10;;;;;;;31.80;19.00;;;;;;;3.66;100.00;100872.13;5026819;28;20225;-70
2022/12/01 02:01:35;;;;;;;32.37;21.23;;;;;;;3.74;100.00;100879.66;5019628;28;20226;-70
2022/12/01 02:04:02;;;;;;;33.80;21.00;;;;;;;3.70;100.00;100875.47;5018911;28;20179;-70
2022/12/01 02:06:27;;;;;;;35.97;22.87;;;;;;;3.47;100.00;100875.75;5025480;28;20288;-70
2022/12/01 02:08:52;;;;;;;36.33;22.30;;;;;;;3.50;100.00;100876.56;5011725;28;20225;-70
2022/12/01 02:11:57;;;;;;;37.77;22.47;;;;;;;3.58;100.00;100875.63;5010879;28;20256;-70
2022/12/01 02:14:55;;;;;;;42.23;24.63;;;;;;;3.65;100.00;100874.69;5011996;28;20254;-70
2022/12/01 02:17:49;;;;;;;42.53;24.53;;;;;;;3.53;100.00;100878.22;5001726;28;20237;-71
2022/12/01 02:20:41;;;;;;;42.03;24.57;;;;;;;3.47;100.00;100868.97;4994174;28;20203;-71
2022/12/01 02:23:24;;;;;;;40.83;23.93;;;;;;;3.46;100.00;100874.94;5025774;28;20197;-71
2022/12/01 02:26:09;;;;;;;45.53;25.97;;;;;;;3.46;100.00;100879.16;5015031;28;20194;-71
2022/12/01 02:29:03;;;;;;;39.97;23.40;;;;;;;3.33;100.00;100878.47;5013202;28;20642;-71
2022/12/01 02:31:47;;;;;;;44.40;24.17;;;;;;;3.18;100.00;100876.97;5015556;28;20221;-70
2022/12/01 02:34:27;;;;;;;41.97;24.60;;;;;;;3.25;100.00;100876.03;5013403;28;20182;-70
2022/12/01 02:37:05;;;;;;;41.27;25.83;;;;;;;3.18;100.00;100872.72;5014411;28;20632;-70
2022/12/01 02:39:41;;;;;;;44.10;26.43;;;;;;;3.25;100.00;100875.19;5014485;28;20210;-72
2022/12/01 02:42:47;;;;;;;44.80;26.63;;;;;;;3.34;100.00;100878.47;5021576;28;20228;-71
2022/12/01 02:45:02;;;;;;;46.63;26.83;;;;;;;3.22;100.00;100876.91;5014425;28;20267;-72
2022/12/01 02:47:28;;;;;;;42.40;26.83;;;;;;;3.25;100.00;100875.19;5029186;28;20189;-73
2022/12/01 02:49:55;;;;;;;42.33;25.03;;;;;;;3.37;100.00;100870.81;5013021;28;20178;-70
2022/12/01 02:52:23;;;;;;;45.20;25.60;;;;;;;3.31;100.00;100875.09;5003406;28;20370;-70
2022/12/01 02:54:49;;;;;;;44.43;26.67;;;;;;;3.28;100.00;100883.63;5009579;28;20190;-70
2022/12/01 02:57:15;;;;;;;50.00;27.77;;;;;;;3.30;100.00;100870.88;5013631;28;20187;-70
2022/12/01 02:59:46;;;;;;;41.20;25.93;;;;;;;3.22;100.00;100870.97;5029370;28;20194;-70
2022/12/01 03:02:28;;;;;;;45.47;26.30;;;;;;;3.13;100.00;100873.63;5019498;28;20218;-70
2022/12/01 03:05:08;;;;;;;44.00;26.90;;;;;;;3.28;100.00;100878.53;5027450;28;20252;-70
2022/12/01 03:07:36;;;;;;;43.23;25.90;;;;;;;3.20;100.00;100882.84;5013958;28;20345;-70
2022/12/01 03:10:11;;;;;;;47.80;26.40;;;;;;;3.34;100.00;100881.00;5023988;28;20250;-70
2022/12/01 03:13:22;;;;;;;46.50;27.13;;;;;;;3.21;100.00;100872.69;5020110;28;20289;-70
2022/12/01 03:16:04;;;;;;;45.30;27.77;;;;;;;3.39;100.00;100875.88;4982058;28;20560;-70
2022/12/01 03:18:45;;;;;;;41.43;26.17;;;;;;;3.44;100.00;100873.28;5008033;28;20248;-71
2022/12/01 03:21:24;;;;;;;37.10;25.37;;;;;;;3.52;100.00;100872.31;5005487;28;20237;-71
2022/12/01 03:23:57;;;;;;;39.77;25.47;;;;;;;3.69;100.00;100861.88;5012801;28;20241;-71
2022/12/01 03:26:24;;;;;;;40.77;25.23;;;;;;;3.72;100.00;100866.09;5028618;28;20645;-71
2022/12/01 03:28:58;;;;;;;39.80;24.90;;;;;;;3.63;100.00;100867.06;5012408;28;20265;-71
2022/12/01 03:31:30;;;;;;;37.97;24.53;;;;;;;3.60;100.00;100858.63;5029044;28;20689;-71
2022/12/01 03:34:11;;;;;;;41.63;25.30;;;;;;;3.60;100.00;100876.44;4996930;28;20189;-70
2022/12/01 03:36:49;;;;;;;39.00;25.27;;;;;;;3.46;100.00;100866.44;5028560;28;20622;-71
2022/12/01 03:39:21;;;;;;;42.67;26.97;;;;;;;3.57;100.00;100868.84;5013343;28;20195;-71
2022/12/01 03:41:54;;;;;;;43.57;26.47;;;;;;;3.31;100.00;100872.56;5016950;28;20233;-71
2022/12/01 03:44:24;;;;;;;46.77;26.33;;;;;;;3.41;100.00;100871.56;5028650;28;20183;-70
2022/12/01 03:46:57;;;;;;;39.37;25.20;;;;;;;3.58;100.00;100879.00;5011418;28;20186;-70
2022/12/01 03:49:24;;;;;;;42.77;27.07;;;;;;;3.50;100.00;100880.81;5012064;28;20178;-70
2022/12/01 03:52:23;;;;;;;44.03;27.20;;;;;;;3.49;100.00;100876.59;5003276;28;20697;-70
2022/12/01 03:54:59;;;;;;;41.17;25.03;;;;;;;3.47;100.00;100879.13;5013002;28;20536;-71
2022/12/01 03:57:32;;;;;;;48.70;27.87;;;;;;;3.41;100.00;100874.13;5011322;28;20178;-70
2022/12/01 03:59:57;;;;;;;39.93;24.87;;;;;;;3.39;100.00;100869.06;5011804;28;20198;-71
2022/12/01 04:02:26;;;;;;;42.00;26.03;;;;;;;3.37;100.00;100873.34;4976231;28;20230;-71
2022/12/01 04:04:52;;;;;;;43.47;25.57;;;;;;;3.36;100.00;100870.81;5011019;28;20241;-71
2022/12/01 04:07:19;;;;;;;41.13;24.93;;;;;;;3.26;100.00;100876.88;5027629;28;20682;-71
2022/12/01 04:09:45;;;;;;;41.23;25.87;;;;;;;3.49;100.00;100882.50;5012673;28;20234;-70
2022/12/01 04:12:32;;;;;;;39.90;24.87;;;;;;;3.44;100.00;100874.09;5018120;28;20228;-70
2022/12/01 04:15:04;;;;;;;43.63;26.73;;;;;;;3.60;100.00;100872.19;5012624;28;20206;-70
2022/12/01 04:17:30;;;;;;;43.07;26.50;;;;;;;3.50;100.00;100878.28;5016863;28;20297;-70
2022/12/01 04:19:56;;;;;;;43.43;26.07;;;;;;;3.53;100.00;100876.50;5027831;28;20206;-71
2022/12/01 04:22:22;;;;;;;41.27;27.20;;;;;;;3.56;100.00;100880.75;5003057;28;20261;-71
2022/12/01 04:24:47;;;;;;;47.10;27.60;;;;;;;3.60;100.00;100886.59;5012480;28;20183;-70
2022/12/01 04:27:13;;;;;;;43.97;27.23;;;;;;;3.48;100.00;100883.38;5027414;28;20649;-70
2022/12/01 04:29:38;;;;;;;41.47;24.47;;;;;;;3.28;100.00;100881.06;5011121;28;20182;-70
2022/12/01 04:32:04;;;;;;;38.90;24.63;;;;;;;3.17;100.00;100886.28;4983936;28;20298;-70
2022/12/01 04:34:29;;;;;;;37.93;23.60;;;;;;;3.33;100.00;100884.41;5012648;28;20218;-70
2022/12/01 04:36:55;;;;;;;41.67;25.70;;;;;;;3.45;100.00;100885.09;5011895;28;20181;-70
2022/12/01 04:39:20;;;;;;;37.70;23.57;;;;;;;3.38;100.00;100887.72;5012429;28;20652;-70
2022/12/01 04:41:45;;;;;;;41.50;26.43;;;;;;;3.49;100.00;100879.13;5003486;28;20225;-70
2022/12/01 04:44:11;;;;;;;36.23;24.33;;;;;;;3.68;100.00;100878.03;5027502;28;20201;-70
2022/12/01 04:46:37;;;;;;;37.87;25.30;;;;;;;3.78;100.00;100870.28;5011741;28;20185;-70
2022/12/01 04:49:03;;;;;;;37.13;25.00;;;;;;;3.70;100.00;100873.75;5005851;28;20178;-69
2022/12/01 04:51:28;;;;;;;37.17;25.87;;;;;;;3.46;100.00;100879.16;5012376;28;20253;-70
2022/12/01 04:53:54;;;;;;;43.03;26.00;;;;;;;3.35;100.00;100879.28;5016477;28;20556;-70
2022/12/01 04:56:19;;;;;;;38.13;25.87;;;;;;;3.47;100.00;100884.22;5011618;28;20675;-70
2022/12/01 04:58:45;;;;;;;40.50;26.83;;;;;;;3.53;100.00;100886.69;5011832;28;20181;-70
2022/12/01 05:01:12;;;;;;;36.73;25.80;;;;;;;3.64;100.00;100878.91;5010484;28;20233;-70
2022/12/01 05:03:39;;;;;;;42.23;26.63;;;;;;;3.67;100.00;100872.94;5010717;28;20178;-70
2022/12/01 05:06:14;;;;;;;37.87;26.57;;;;;;;3.68;100.00;100877.19;5027206;28;20309;-70
2022/12/01 05:08:40;;;;;;;40.60;26.27;;;;;;;3.62;100.00;100878.13;5011568;28;20194;-70
2022/12/01 05:11:07;;;;;;;37.77;24.90;;;;;;;3.60;100.00;100884.06;5009752;28;20241;-70
2022/12/01 05:13:35;;;;;;;37.20;24.73;;;;;;;3.49;100.00;100879.13;4998715;28;20198;-70
2022/12/01 05:16:05;;;;;;;41.70;24.87;;;;;;;3.17;100.00;100885.44;5011110;28;20651;-69
2022/12/01 05:18:31;;;;;;;32.73;22.80;;;;;;;3.03;100.00;100888.16;5021224;28;20177;-70
2022/12/01 05:20:57;;;;;;;34.43;24.43;;;;;;;2.95;100.00;100879.75;5019674;28;20280;-69
2022/12/01 05:23:27;;;;;;;35.47;23.27;;;;;;;2.88;100.00;100882.34;5020645;28;20235;-70
2022/12/01 05:25:53;;;;;;;33.23;22.43;;;;;;;2.87;100.00;100885.75;5010750;28;20178;-69
2022/12/01 05:28:20;;;;;;;32.13;22.57;;;;;;;2.92;100.00;100880.63;5026416;28;20182;-69
2022/12/01 05:30:45;;;;;;;32.53;21.77;;;;;;;2.82;100.00;100884.13;5019436;28;20260;-69
2022/12/01 05:33:14;;;;;;;39.83;24.40;;;;;;;2.94;100.00;100881.47;5021905;28;20680;-69
2022/12/01 05:35:40;;;;;;;37.70;23.83;;;;;;;2.86;100.00;100886.59;5012109;28;20914;-70
2022/12/01 05:38:06;;;;;;;41.43;25.17;;;;;;;2.85;100.00;100891.69;5010248;28;20212;-69
2022/12/01 05:40:31;;;;;;;37.53;24.80;;;;;;;2.83;100.00;100888.31;5018286;28;20315;-69
2022/12/01 05:42:57;;;;;;;37.93;25.77;;;;;;;2.79;100.00;100892.63;5015647;28;20266;-68
2022/12/01 05:45:23;;;;;;;35.60;23.97;;;;;;;2.94;100.00;100898.38;5005674;28;20602;-69
2022/12/01 05:47:48;;;;;;;36.70;24.97;;;;;;;3.11;100.00;100896.50;5006004;28;20187;-69
2022/12/01 05:50:14;;;;;;;35.87;24.77;;;;;;;2.98;100.00;100900.06;5018586;28;20189;-69
2022/12/01 05:52:40;;;;;;;36.40;22.53;;;;;;;2.89;100.00;100895.88;5013410;28;20194;-69
2022/12/01 05:55:06;;;;;;;31.80;22.83;;;;;;;2.80;100.00;100894.28;5015535;28;20645;-68
2022/12/01 05:57:32;;;;;;;35.43;24.07;;;;;;;2.74;100.00;100891.78;5030295;28;20175;-69
2022/12/01 05:59:58;;;;;;;33.53;23.17;;;;;;;2.72;100.00;100894.34;5030547;28;20567;-68
2022/12/01 06:02:25;;;;;;;35.03;23.87;;;;;;;2.89;100.00;100900.97;5004256;28;20300;-68
2022/12/01 06:04:52;;;;;;;39.03;24.83;;;;;;;2.98;100.00;100907.69;5030567;28;20186;-69
2022/12/01 06:07:18;;;;;;;35.70;24.03;;;;;;;3.20;100.00;100900.66;5030015;28;20202;-68
2022/12/01 06:09:45;;;;;;;33.33;23.37;;;;;;;3.20;100.00;100908.28;5030053;28;20223;-70
2022/12/01 06:12:11;;;;;;;32.17;21.07;;;;;;;2.99;100.00;100904.25;5005083;28;20664;-68
2022/12/01 06:14:36;;;;;;;32.07;21.67;;;;;;;2.90;100.00;100900.97;5004692;28;20179;-68
2022/12/01 06:17:01;;;;;;;37.93;21.87;;;;;;;2.83;100.00;100895.94;5029035;28;20200;-68
2022/12/01 06:19:27;;;;;;;38.70;23.13;;;;;;;2.88;100.00;100899.31;5015229;28;20205;-68
2022/12/01 06:21:52;;;;;;;34.67;21.10;;;;;;;2.90;100.00;100910.28;5006605;28;20337;-67
2022/12/01 06:24:17;;;;;;;33.57;23.17;;;;;;;2.92;100.00;100905.22;5016312;28;20178;-68
2022/12/01 06:26:42;;;;;;;31.63;21.77;;;;;;;2.95;100.00;100911.06;5014264;28;20210;-68
2022/12/01 06:29:09;;;;;;;33.57;21.43;;;;;;;3.05;100.00;100904.19;5029749;28;20186;-66
2022/12/01 06:31:34;;;;;;;29.73;21.43;;;;;;;3.15;100.00;100913.44;5016529;28;20389;-67
2022/12/01 06:34:00;;;;;;;33.70;20.80;;;;;;;2.88;100.00;100910.31;5018698;28;20290;-66
2022/12/01 06:36:25;;;;;;;30.50;20.30;;;;;;;2.87;100.00;100910.31;5028954;28;20289;-67
2022/12/01 06:38:50;;;;;;;31.57;20.67;;;;;;;2.79;100.00;100910.41;5014668;28;20190;-66
2022/12/01 06:41:15;;;;;;;34.67;22.40;;;;;;;2.74;100.00;100912.97;5005752;28;20251;-66
2022/12/01 06:43:41;;;;;;;32.57;21.77;;;;;;;2.76;100.00;100914.66;5023462;28;20182;-66
2022/12/01 06:46:06;;;;;;;30.17;21.23;;;;;;;2.70;100.00;100915.56;5014904;28;20649;-65
2022/12/01 06:48:33;;;;;;;33.07;23.37;;;;;;;2.65;100.00;100907.97;5014170;28;20190;-66
2022/12/01 06:50:59;;;;;;;40.13;24.77;;;;;;;2.64;100.00;100920.69;5005899;28;20256;-66
2022/12/01 06:53:28;;;;;;;33.13;22.00;;;;;;;2.59;100.00;100913.09;5013198;28;20205;-66
2022/12/01 06:55:58;;;;;;;29.40;21.87;;;;;;;2.64;100.00;100921.53;5002339;28;20268;-66
2022/12/01 06:58:23;;;;;;;31.97;21.47;;;;;;;2.58;100.00;100921.59;5012515;28;20188;-66
2022/12/01 07:00:48;;;;;;;32.73;21.93;;;;;;;2.56;100.00;100924.13;5005567;28;20266;-66
2022/12/01 07:03:13;;;;;;;33.33;22.67;;;;;;;2.63;100.00;100917.31;5023101;28;20186;-66
2022/12/01 07:05:39;;;;;;;33.17;22.40;;;;;;;2.61;100.00;100925.81;5013829;28;20184;-66
2022/12/01 07:08:05;;;;;;;36.90;23.17;;;;;;;2.63;100.00;100930.03;5013465;28;20279;-66
2022/12/01 07:10:30;;;;;;;34.10;23.40;;;;;;;2.88;100.00;100925.56;5007174;28;20305;-66
2022/12/01 07:12:56;;;;;;;33.83;22.87;;;;;;;2.79;100.00;100930.72;5018981;28;20190;-66
2022/12/01 07:15:23;;;;;;;31.73;22.87;;;;;;;2.97;100.00;100939.03;5025495;28;20183;-66
2022/12/01 07:17:48;;;;;;;32.73;22.17;;;;;;;3.09;100.00;100945.69;5013672;28;20182;-66
2022/12/01 07:20:14;;;;;;;30.53;21.93;;;;;;;3.06;100.00;100941.47;5005397;28;20232;-66
2022/12/01 07:22:41;;;;;;;33.93;22.10;;;;;;;3.07;100.00;100943.16;5028982;28;20190;-66
2022/12/01 07:25:07;;;;;;;34.40;22.07;;;;;;;3.07;100.00;100949.06;5013734;28;20179;-66
2022/12/01 07:27:32;;;;;;;36.17;23.73;;;;;;;3.24;100.00;100958.25;5028466;28;20189;-66
2022/12/01 07:29:57;;;;;;;31.33;21.07;;;;;;;3.13;100.00;100955.00;5013695;28;20190;-66
2022/12/01 07:32:23;;;;;;;32.07;21.70;;;;;;;3.07;100.00;100955.88;5009068;28;20219;-67
2022/12/01 07:34:48;;;;;;;33.63;22.33;;;;;;;3.02;100.00;100958.44;5028133;28;20246;-67
2022/12/01 07:37:13;;;;;;;31.83;22.07;;;;;;;3.03;100.00;100960.16;5027598;28;20249;-67
2022/12/01 07:39:38;;;;;;;33.83;21.20;;;;;;;3.05;100.00;100960.97;5013185;28;20210;-67
2022/12/01 07:42:04;;;;;;;34.13;22.40;;;;;;;3.09;100.00;100964.34;5013443;28;20234;-67
2022/12/01 07:44:29;;;;;;;32.67;21.60;;;;;;;3.14;100.00;100966.81;5011675;28;20749;-67
2022/12/01 07:46:55;;;;;;;34.10;21.23;;;;;;;3.00;100.00;100969.50;5009734;28;20183;-67
2022/12/01 07:49:20;;;;;;;33.57;22.67;;;;;;;3.05;100.00;100967.75;5013246;28;20191;-67
2022/12/01 07:51:45;;;;;;;30.13;22.43;;;;;;;3.54;100.00;100974.88;5005198;28;20239;-67
2022/12/01 07:54:13;;;;;;;33.03;23.13;;;;;;;3.59;100.00;100969.75;5015309;28;20190;-66
2022/12/01 07:56:38;;;;;;;28.20;21.17;;;;;;;3.28;100.00;100970.06;5017308;28;20186;-64
2022/12/01 07:59:04;;;;;;;35.43;22.33;;;;;;;3.34;100.00;100969.19;5011845;28;20261;-65
2022/12/01 08:01:29;;;;;;;30.33;21.30;;;;;;;3.30;100.00;100976.00;4990851;28;20230;-66
2022/12/01 08:03:57;;;;;;;34.17;21.80;;;;;;;3.06;100.00;100971.97;5000267;28;20182;-66
2022/12/01 08:06:24;;;;;;;29.40;21.80;;;;;;;3.06;100.00;100970.31;5010140;28;20210;-67
2022/12/01 08:08:50;;;;;;;29.97;20.87;;;;;;;2.89;100.00;100975.53;5010902;28;20185;-67
2022/12/01 08:11:24;;;;;;;40.23;26.23;;;;;;;2.83;100.00;100980.66;5011485;28;20581;-67
2022/12/01 08:13:51;;;;;;;34.07;23.57;;;;;;;2.99;100.00;100988.13;5015796;28;20181;-66
2022/12/01 08:16:20;;;;;;;30.87;21.13;;;;;;;2.90;100.00;100989.06;5001027;28;20269;-66
2022/12/01 08:18:45;;;;;;;31.03;20.73;;;;;;;2.59;100.00;100986.75;5008051;28;20236;-66
2022/12/01 08:21:17;;;;;;;31.77;20.90;;;;;;;2.57;100.00;100991.03;5000577;28;20656;-66
2022/12/01 08:23:42;;;;;;;31.27;20.87;;;;;;;2.50;100.00;100992.75;5018729;28;20185;-66
2022/12/01 08:26:14;;;;;;;29.20;20.13;;;;;;;2.47;100.00;100990.25;5019670;28;20178;-66
2022/12/01 08:28:39;;;;;;;29.83;21.13;;;;;;;2.65;100.00;100996.88;5007314;28;20188;-67
2022/12/01 08:31:16;;;;;;;29.67;21.33;;;;;;;2.49;100.00;100995.31;4985892;28;20230;-66
2022/12/01 08:33:41;;;;;;;32.20;21.83;;;;;;;2.64;100.00;100991.81;4994751;28;20814;-67
2022/12/01 08:36:07;;;;;;;31.17;20.47;;;;;;;2.68;100.00;100994.34;5012270;28;20213;-67
2022/12/01 08:38:33;;;;;;;37.87;22.40;;;;;;;2.57;100.00;100991.88;5009192;28;20255;-67
2022/12/01 08:41:03;;;;;;;33.13;23.27;;;;;;;2.46;100.00;100997.88;4999705;28;20321;-67
2022/12/01 08:43:29;;;;;;;27.67;20.27;;;;;;;2.56;100.00;100995.25;5009967;28;20183;-66
2022/12/01 08:45:59;;;;;;;27.73;21.40;;;;;;;2.49;100.00;100998.69;5012304;28;20180;-66
2022/12/01 08:48:24;;;;;;;27.33;18.50;;;;;;;2.48;100.00;100998.69;5026786;28;20182;-67
2022/12/01 08:50:50;;;;;;;25.13;19.07;;;;;;;2.42;100.00;100992.81;5008038;28;20262;-67
2022/12/01 08:53:15;;;;;;;34.13;18.47;;;;;;;2.48;100.00;100999.56;5021240;28;20193;-67
2022/12/01 08:55:40;;;;;;;27.40;18.70;;;;;;;2.60;100.00;100992.69;5012393;28;20183;-67
2022/12/01 08:58:06;;;;;;;24.87;17.70;;;;;;;2.68;100.00;100996.88;5010263;28;20256;-67
2022/12/01 09:00:31;;;;;;;24.20;17.50;;;;;;;2.78;100.00;100995.09;5004993;28;20230;-68
2022/12/01 09:02:56;;;;;;;26.33;19.20;;;;;;;2.83;100.00;100995.91;5020107;28;20185;-67
2022/12/01 09:05:22;;;;;;;23.73;17.40;;;;;;;2.67;100.00;100995.19;5010691;28;20646;-68
2022/12/01 09:08:29;;;;;;;23.97;18.57;;;;;;;2.78;100.00;100994.25;5026920;28;20210;-66
2022/12/01 09:10:32;;;;;;;26.87;18.63;;;;;;;2.94;100.00;100998.38;5005845;28;20236;-67
2022/12/01 09:12:57;;;;;;;24.20;17.67;;;;;;;2.97;100.00;100997.50;5020603;28;20182;-67
2022/12/01 09:15:23;;;;;;;25.47;18.03;;;;;;;3.10;100.00;100999.09;5011741;28;20546;-66
2022/12/01 09:17:48;;;;;;;25.57;18.83;;;;;;;3.19;100.00;101004.06;5011018;28;20257;-67
2022/12/01 09:20:13;;;;;;;24.33;18.70;;;;;;;3.16;100.00;101003.25;5007603;28;20209;-67
2022/12/01 09:22:39;;;;;;;24.17;16.87;;;;;;;3.00;100.00;101000.84;5026259;28;20197;-66
2022/12/01 09:25:07;;;;;;;22.87;17.20;;;;;;;3.00;100.00;101002.53;4997874;28;20190;-66
2022/12/01 09:27:32;;;;;;;22.13;16.83;;;;;;;3.00;100.00;101008.47;5006749;28;20179;-66
2022/12/01 09:29:57;;;;;;;26.17;16.47;;;;;;;2.96;100.00;101005.97;5005103;28;20196;-66
2022/12/01 09:32:22;;;;;;;22.43;17.03;;;;;;;3.00;100.00;101005.09;5009180;28;20236;-65
2022/12/01 09:34:48;;;;;;;24.83;17.10;;;;;;;3.04;100.00;101001.69;5012310;28;20182;-66
2022/12/01 09:37:13;;;;;;;23.53;17.17;;;;;;;3.11;100.00;100997.38;5025181;28;20183;-66
2022/12/01 09:39:39;;;;;;;23.13;17.30;;;;;;;3.06;100.00;100994.84;5012704;28;20233;-66
2022/12/01 09:42:12;;;;;;;22.57;16.47;;;;;;;3.07;100.00;100991.47;5002151;28;21573;-66
2022/12/01 09:44:50;;;;;;;28.17;17.53;;;;;;;3.11;100.00;100993.13;5017766;28;20626;-66
2022/12/01 09:47:33;;;;;;;21.90;16.77;;;;;;;3.21;100.00;100996.41;5014904;28;20284;-65
2022/12/01 09:50:14;;;;;;;21.97;16.50;;;;;;;3.37;100.00;100986.94;5008021;28;20210;-66
2022/12/01 09:52:48;;;;;;;36.30;20.67;;;;;;;3.58;100.00;100979.94;4994013;28;20250;-66
2022/12/01 09:55:16;;;;;;;22.80;17.73;;;;;;;3.52;100.00;100984.25;5009626;28;20197;-64
2022/12/01 09:57:43;;;;;;;20.73;16.57;;;;;;;3.64;100.00;100970.53;5019155;28;20207;-65
2022/12/01 10:00:18;;;;;;;21.83;15.57;;;;;;;3.46;100.00;100969.03;5019934;28;20203;-66
2022/12/01 10:02:53;;;;;;;22.73;17.13;;;;;;;3.62;100.00;100967.19;5011693;28;20186;-65
2022/12/01 10:05:22;;;;;;;21.60;16.40;;;;;;;3.67;100.00;100969.63;5014480;28;20181;-65
2022/12/01 10:08:04;;;;;;;22.00;16.90;;;;;;;3.53;100.00;100968.09;5014045;28;20207;-66
2022/12/01 10:10:36;;;;;;;21.57;16.00;;;;;;;3.43;100.00;100963.97;5004980;28;20234;-65
2022/12/01 10:13:02;;;;;;;20.70;16.03;;;;;;;3.68;100.00;100961.16;5009532;28;20181;-65
2022/12/01 10:15:46;;;;;;;21.83;15.97;;;;;;;3.85;100.00;100956.69;5014566;28;20248;-66
2022/12/01 10:18:49;;;;;;;21.77;16.50;;;;;;;3.91;100.00;100957.47;5008543;28;20198;-66
2022/12/01 10:21:39;;;;;;;23.53;16.53;;;;;;;3.83;100.00;100953.34;5005537;28;20293;-65
2022/12/01 10:24:10;;;;;;;18.43;15.20;;;;;;;3.82;100.00;100955.88;5012287;28;20644;-66
2022/12/01 10:26:59;;;;;;;24.00;15.17;;;;;;;3.80;100.00;100953.38;5010279;28;20549;-65
2022/12/01 10:30:01;;;;;;;18.50;13.97;;;;;;;3.74;100.00;100947.53;5012547;28;20183;-66
2022/12/01 10:33:00;;;;;;;18.70;14.03;;;;;;;3.61;100.00;100946.81;4991477;28;20264;-65
2022/12/01 10:35:30;;;;;;;18.63;14.00;;;;;;;3.74;100.00;100943.25;5009301;28;20191;-65
2022/12/01 10:37:58;;;;;;;20.87;14.93;;;;;;;3.74;100.00;100948.34;5012271;28;20190;-66
2022/12/01 10:40:25;;;;;;;18.00;13.93;;;;;;;3.88;100.00;100949.03;5000934;28;20735;-65
2022/12/01 10:42:51;;;;;;;24.43;14.50;;;;;;;3.74;100.00;100942.44;5025917;28;20193;-66
2022/12/01 10:45:46;;;;;;;19.37;16.10;;;;;;;3.63;100.00;100943.38;5018392;28;20274;-66
2022/12/01 10:48:17;;;;;;;18.87;14.47;;;;;;;3.62;100.00;100938.31;4994860;28;20566;-65
2022/12/01 10:50:46;;;;;;;19.10;15.23;;;;;;;3.62;100.00;100938.31;4981710;28;20266;-65
2022/12/01 10:53:29;;;;;;;18.23;14.13;;;;;;;3.66;100.00;100935.72;4987100;28;20289;-66
2022/12/01 10:56:10;;;;;;;21.07;15.47;;;;;;;3.67;100.00;100929.78;5011719;28;20205;-67
2022/12/01 10:58:49;;;;;;;20.93;15.63;;;;;;;3.72;100.00;100933.13;5011300;28;20201;-66
2022/12/01 11:01:22;;;;;;;19.50;14.50;;;;;;;3.96;100.00;100930.28;4991671;28;20231;-66
2022/12/01 11:04:23;;;;;;;23.07;15.93;;;;;;;4.04;100.00;100921.66;5010679;28;20289;-66
2022/12/01 11:06:50;;;;;;;20.63;15.17;;;;;;;4.34;100.00;100922.06;5010662;28;20252;-66
2022/12/01 11:09:22;;;;;;;21.13;16.13;;;;;;;4.15;100.00;100920.66;5011357;28;20302;-65
2022/12/01 11:11:55;;;;;;;19.77;15.67;;;;;;;4.22;100.00;100921.38;4976055;28;20220;-66
2022/12/01 11:14:44;;;;;;;20.47;15.50;;;;;;;4.16;100.00;100922.34;4992321;28;20191;-65
2022/12/01 11:17:48;;;;;;;19.50;14.97;;;;;;;4.36;100.00;100916.94;4991691;28;20219;-65
2022/12/01 11:20:25;;;;;;;18.53;15.07;;;;;;;4.30;100.00;100912.78;4942334;28;20221;-66
2022/12/01 11:22:50;;;;;;;20.37;15.67;;;;;;;4.40;100.00;100910.91;4952387;28;20283;-65